sensor_id;sensor_type;location;lat;lon;timestamp;pressure;altitude;pressure_sealevel;temperature;humidity
75497;BME280;64074;47.540;19.072;2023-08-24T00:01:03;100656.53;;;25.77;65.39
75497;BME280;64074;47.540;19.072;2023-08-24T00:04:07;100645.41;;;25.70;66.08
75497;BME280;64074;47.540;19.072;2023-08-24T00:07:12;100639.00;;;25.62;65.40
75497;BME280;64074;47.540;19.072;2023-08-24T00:10:15;100636.63;;;25.61;67.19
75497;BME280;64074;47.540;19.072;2023-08-24T00:13:19;100631.94;;;25.75;65.48
75497;BME280;64074;47.540;19.072;2023-08-24T00:16:23;100639.13;;;25.80;65.25
75497;BME280;64074;47.540;19.072;2023-08-24T00:19:26;100636.25;;;25.66;65.74
75497;BME280;64074;47.540;19.072;2023-08-24T00:22:29;100632.66;;;25.62;66.13
75497;BME280;64074;47.540;19.072;2023-08-24T00:25:32;100625.03;;;25.48;66.74
75497;BME280;64074;47.540;19.072;2023-08-24T00:28:36;100629.22;;;25.13;67.76
75497;BME280;64074;47.540;19.072;2023-08-24T00:31:39;100639.91;;;25.11;67.64
75497;BME280;64074;47.540;19.072;2023-08-24T00:34:42;100633.16;;;25.05;67.85
75497;BME280;64074;47.540;19.072;2023-08-24T00:37:45;100647.84;;;25.09;67.99
75497;BME280;64074;47.540;19.072;2023-08-24T00:40:51;100645.91;;;25.17;67.88
75497;BME280;64074;47.540;19.072;2023-08-24T00:43:56;100642.72;;;25.15;68.13
75497;BME280;64074;47.540;19.072;2023-08-24T00:47:00;100646.78;;;25.28;67.63
75497;BME280;64074;47.540;19.072;2023-08-24T00:50:04;100643.56;;;25.26;67.99
75497;BME280;64074;47.540;19.072;2023-08-24T00:53:08;100634.44;;;25.22;68.75
75497;BME280;64074;47.540;19.072;2023-08-24T00:56:12;100640.38;;;25.21;67.96
75497;BME280;64074;47.540;19.072;2023-08-24T00:59:16;100648.66;;;25.13;68.02
75497;BME280;64074;47.540;19.072;2023-08-24T01:02:19;100652.19;;;25.07;68.68
75497;BME280;64074;47.540;19.072;2023-08-24T01:05:22;100658.16;;;25.12;67.58
75497;BME280;64074;47.540;19.072;2023-08-24T01:08:27;100657.31;;;25.05;67.91
75497;BME280;64074;47.540;19.072;2023-08-24T01:15:13;100653.06;;;24.70;68.42
75497;BME280;64074;47.540;19.072;2023-08-24T01:18:18;100647.66;;;24.88;67.98
75497;BME280;64074;47.540;19.072;2023-08-24T01:21:23;100648.09;;;24.94;67.91
75497;BME280;64074;47.540;19.072;2023-08-24T01:24:37;100640.06;;;24.81;68.27
75497;BME280;64074;47.540;19.072;2023-08-24T01:27:42;100641.31;;;24.91;67.74
75497;BME280;64074;47.540;19.072;2023-08-24T01:30:46;100638.66;;;25.02;67.51
75497;BME280;64074;47.540;19.072;2023-08-24T01:33:50;100641.28;;;24.84;67.95
75497;BME280;64074;47.540;19.072;2023-08-24T01:36:53;100643.50;;;24.64;68.56
75497;BME280;64074;47.540;19.072;2023-08-24T01:40:07;100653.25;;;24.47;68.98
75497;BME280;64074;47.540;19.072;2023-08-24T01:43:15;100649.59;;;24.40;69.06
75497;BME280;64074;47.540;19.072;2023-08-24T01:46:34;100640.84;;;24.34;69.34
75497;BME280;64074;47.540;19.072;2023-08-24T01:49:39;100643.06;;;24.59;68.49
75497;BME280;64074;47.540;19.072;2023-08-24T01:52:43;100653.47;;;24.72;67.98
75497;BME280;64074;47.540;19.072;2023-08-24T01:55:46;100650.22;;;24.63;68.64
75497;BME280;64074;47.540;19.072;2023-08-24T01:58:49;100644.84;;;24.37;69.24
75497;BME280;64074;47.540;19.072;2023-08-24T02:01:52;100643.00;;;24.14;69.90
75497;BME280;64074;47.540;19.072;2023-08-24T02:04:56;100641.03;;;24.18;70.14
75497;BME280;64074;47.540;19.072;2023-08-24T02:08:00;100643.47;;;24.23;70.24
75497;BME280;64074;47.540;19.072;2023-08-24T02:11:03;100639.03;;;24.52;69.01
75497;BME280;64074;47.540;19.072;2023-08-24T02:14:08;100635.53;;;24.59;68.89
75497;BME280;64074;47.540;19.072;2023-08-24T02:17:12;100638.38;;;24.70;68.58
75497;BME280;64074;47.540;19.072;2023-08-24T02:20:17;100640.81;;;24.78;68.59
75497;BME280;64074;47.540;19.072;2023-08-24T02:23:20;100632.97;;;24.84;68.10
75497;BME280;64074;47.540;19.072;2023-08-24T02:26:24;100630.56;;;24.82;67.74
75497;BME280;64074;47.540;19.072;2023-08-24T02:29:27;100634.13;;;24.79;67.98
75497;BME280;64074;47.540;19.072;2023-08-24T02:32:31;100628.91;;;24.74;68.19
75497;BME280;64074;47.540;19.072;2023-08-24T02:35:34;100627.28;;;24.70;68.10
75497;BME280;64074;47.540;19.072;2023-08-24T02:38:38;100632.03;;;24.66;68.29
75497;BME280;64074;47.540;19.072;2023-08-24T02:41:41;100630.47;;;24.72;67.90
75497;BME280;64074;47.540;19.072;2023-08-24T02:44:44;100628.88;;;24.71;68.14
75497;BME280;64074;47.540;19.072;2023-08-24T02:47:47;100624.94;;;24.75;68.10
75497;BME280;64074;47.540;19.072;2023-08-24T02:50:52;100629.63;;;24.64;69.17
75497;BME280;64074;47.540;19.072;2023-08-24T02:53:55;100627.84;;;24.42;69.29
75497;BME280;64074;47.540;19.072;2023-08-24T02:56:59;100626.59;;;24.36;69.40
75497;BME280;64074;47.540;19.072;2023-08-24T03:00:03;100629.34;;;24.32;69.27
75497;BME280;64074;47.540;19.072;2023-08-24T03:03:09;100622.69;;;24.40;69.07
75497;BME280;64074;47.540;19.072;2023-08-24T03:06:12;100626.03;;;24.60;68.52
75497;BME280;64074;47.540;19.072;2023-08-24T03:09:17;100628.25;;;24.44;69.13
75497;BME280;64074;47.540;19.072;2023-08-24T03:12:24;100626.34;;;24.51;69.15
75497;BME280;64074;47.540;19.072;2023-08-24T03:15:27;100625.84;;;24.39;69.58
75497;BME280;64074;47.540;19.072;2023-08-24T03:18:30;100625.44;;;24.37;69.66
75497;BME280;64074;47.540;19.072;2023-08-24T03:21:33;100621.94;;;24.47;68.87
75497;BME280;64074;47.540;19.072;2023-08-24T03:24:36;100625.50;;;24.44;68.85
75497;BME280;64074;47.540;19.072;2023-08-24T03:27:39;100625.50;;;24.47;68.60
75497;BME280;64074;47.540;19.072;2023-08-24T03:30:47;100621.44;;;24.34;69.40
75497;BME280;64074;47.540;19.072;2023-08-24T03:33:51;100627.63;;;24.24;69.70
75497;BME280;64074;47.540;19.072;2023-08-24T03:36:55;100631.31;;;23.98;70.87
75497;BME280;64074;47.540;19.072;2023-08-24T03:39:58;100631.22;;;23.87;71.76
75497;BME280;64074;47.540;19.072;2023-08-24T03:43:02;100633.94;;;23.84;72.39
75497;BME280;64074;47.540;19.072;2023-08-24T03:46:05;100637.41;;;23.77;72.59
75497;BME280;64074;47.540;19.072;2023-08-24T03:49:09;100644.75;;;23.62;73.67
75497;BME280;64074;47.540;19.072;2023-08-24T03:52:12;100644.34;;;23.60;73.36
75497;BME280;64074;47.540;19.072;2023-08-24T03:55:17;100638.34;;;23.88;72.21
75497;BME280;64074;47.540;19.072;2023-08-24T03:58:20;100635.19;;;23.90;72.08
75497;BME280;64074;47.540;19.072;2023-08-24T04:01:23;100641.22;;;23.99;71.41
75497;BME280;64074;47.540;19.072;2023-08-24T04:04:27;100646.44;;;24.04;71.81
75497;BME280;64074;47.540;19.072;2023-08-24T04:07:31;100647.59;;;24.03;72.08
75497;BME280;64074;47.540;19.072;2023-08-24T04:10:37;100646.34;;;23.97;72.64
75497;BME280;64074;47.540;19.072;2023-08-24T04:13:41;100656.00;;;24.10;72.47
75497;BME280;64074;47.540;19.072;2023-08-24T04:16:44;100645.72;;;24.11;72.46
75497;BME280;64074;47.540;19.072;2023-08-24T04:19:47;100651.25;;;24.11;72.48
75497;BME280;64074;47.540;19.072;2023-08-24T04:22:50;100647.00;;;24.20;71.91
75497;BME280;64074;47.540;19.072;2023-08-24T04:25:53;100655.47;;;24.31;71.48
75497;BME280;64074;47.540;19.072;2023-08-24T04:28:57;100655.09;;;24.33;71.56
75497;BME280;64074;47.540;19.072;2023-08-24T04:32:00;100659.03;;;24.32;71.56
75497;BME280;64074;47.540;19.072;2023-08-24T04:35:04;100653.97;;;24.41;71.17
75497;BME280;64074;47.540;19.072;2023-08-24T04:38:07;100650.78;;;24.39;71.14
75497;BME280;64074;47.540;19.072;2023-08-24T04:41:13;100663.44;;;24.36;71.23
75497;BME280;64074;47.540;19.072;2023-08-24T04:44:17;100660.41;;;24.15;71.65
75497;BME280;64074;47.540;19.072;2023-08-24T04:47:21;100652.41;;;24.06;71.61
75497;BME280;64074;47.540;19.072;2023-08-24T04:50:23;100655.56;;;24.05;72.06
75497;BME280;64074;47.540;19.072;2023-08-24T04:53:27;100668.50;;;23.97;72.62
75497;BME280;64074;47.540;19.072;2023-08-24T04:56:31;100670.03;;;23.91;73.00
75497;BME280;64074;47.540;19.072;2023-08-24T04:59:34;100678.72;;;23.89;73.26
75497;BME280;64074;47.540;19.072;2023-08-24T05:02:37;100678.34;;;23.91;73.14
75497;BME280;64074;47.540;19.072;2023-08-24T05:05:41;100676.44;;;23.99;72.96
75497;BME280;64074;47.540;19.072;2023-08-24T05:08:45;100688.44;;;24.06;72.76
75497;BME280;64074;47.540;19.072;2023-08-24T05:11:49;100676.97;;;24.08;72.64
75497;BME280;64074;47.540;19.072;2023-08-24T05:14:53;100684.84;;;24.06;72.90
75497;BME280;64074;47.540;19.072;2023-08-24T05:17:56;100684.06;;;24.05;72.60
75497;BME280;64074;47.540;19.072;2023-08-24T05:21:02;100680.63;;;24.19;72.15
75497;BME280;64074;47.540;19.072;2023-08-24T05:24:06;100685.78;;;24.20;70.97
75497;BME280;64074;47.540;19.072;2023-08-24T05:27:10;100683.56;;;24.30;70.74
75497;BME280;64074;47.540;19.072;2023-08-24T05:30:13;100682.44;;;24.34;70.70
75497;BME280;64074;47.540;19.072;2023-08-24T05:33:16;100678.47;;;24.35;70.84
75497;BME280;64074;47.540;19.072;2023-08-24T05:36:22;100683.41;;;24.19;71.77
75497;BME280;64074;47.540;19.072;2023-08-24T05:39:26;100689.28;;;24.14;72.38
75497;BME280;64074;47.540;19.072;2023-08-24T05:42:29;100692.84;;;24.14;72.32
75497;BME280;64074;47.540;19.072;2023-08-24T05:45:32;100691.00;;;24.25;72.21
75497;BME280;64074;47.540;19.072;2023-08-24T05:48:36;100689.63;;;24.42;71.45
75497;BME280;64074;47.540;19.072;2023-08-24T05:51:39;100688.38;;;24.36;71.52
75497;BME280;64074;47.540;19.072;2023-08-24T05:54:42;100692.13;;;24.54;70.92
75497;BME280;64074;47.540;19.072;2023-08-24T05:57:46;100697.34;;;24.60;71.08
75497;BME280;64074;47.540;19.072;2023-08-24T06:00:56;100693.50;;;24.75;70.42
75497;BME280;64074;47.540;19.072;2023-08-24T06:03:59;100694.19;;;24.61;70.30
75497;BME280;64074;47.540;19.072;2023-08-24T06:07:02;100687.72;;;24.94;69.14
75497;BME280;64074;47.540;19.072;2023-08-24T06:10:07;100685.94;;;25.16;69.06
75497;BME280;64074;47.540;19.072;2023-08-24T06:13:10;100682.34;;;25.12;68.24
75497;BME280;64074;47.540;19.072;2023-08-24T06:16:13;100682.84;;;25.28;67.81
75497;BME280;64074;47.540;19.072;2023-08-24T06:19:18;100693.97;;;25.28;68.02
75497;BME280;64074;47.540;19.072;2023-08-24T06:22:21;100693.22;;;25.38;67.65
75497;BME280;64074;47.540;19.072;2023-08-24T06:25:24;100700.41;;;25.50;67.43
75497;BME280;64074;47.540;19.072;2023-08-24T06:28:28;100694.84;;;25.43;67.58
75497;BME280;64074;47.540;19.072;2023-08-24T06:31:32;100689.78;;;25.59;67.35
75497;BME280;64074;47.540;19.072;2023-08-24T06:34:36;100691.44;;;25.71;66.96
75497;BME280;64074;47.540;19.072;2023-08-24T06:37:39;100697.84;;;25.79;65.85
75497;BME280;64074;47.540;19.072;2023-08-24T06:40:42;100699.84;;;25.85;66.08
75497;BME280;64074;47.540;19.072;2023-08-24T06:43:45;100700.66;;;25.89;65.51
75497;BME280;64074;47.540;19.072;2023-08-24T06:46:48;100703.44;;;25.93;65.04
75497;BME280;64074;47.540;19.072;2023-08-24T06:49:52;100704.25;;;25.93;64.46
75497;BME280;64074;47.540;19.072;2023-08-24T06:52:55;100706.63;;;25.95;64.00
75497;BME280;64074;47.540;19.072;2023-08-24T06:55:58;100701.09;;;26.02;64.19
75497;BME280;64074;47.540;19.072;2023-08-24T06:59:02;100703.06;;;26.01;63.95
75497;BME280;64074;47.540;19.072;2023-08-24T07:02:07;100703.94;;;26.16;63.83
75497;BME280;64074;47.540;19.072;2023-08-24T07:05:11;100699.59;;;26.26;63.58
75497;BME280;64074;47.540;19.072;2023-08-24T07:08:15;100700.38;;;26.23;63.06
75497;BME280;64074;47.540;19.072;2023-08-24T07:11:19;100698.06;;;26.39;62.67
75497;BME280;64074;47.540;19.072;2023-08-24T07:14:24;100701.25;;;26.41;62.41
75497;BME280;64074;47.540;19.072;2023-08-24T07:17:28;100702.09;;;26.52;62.03
75497;BME280;64074;47.540;19.072;2023-08-24T07:20:34;100694.94;;;26.58;62.16
75497;BME280;64074;47.540;19.072;2023-08-24T07:23:38;100696.13;;;26.64;62.04
75497;BME280;64074;47.540;19.072;2023-08-24T07:26:41;100695.72;;;26.73;61.97
75497;BME280;64074;47.540;19.072;2023-08-24T07:29:44;100692.94;;;26.70;61.41
75497;BME280;64074;47.540;19.072;2023-08-24T07:32:47;100700.09;;;26.74;60.92
75497;BME280;64074;47.540;19.072;2023-08-24T07:35:51;100697.34;;;26.81;60.33
75497;BME280;64074;47.540;19.072;2023-08-24T07:38:54;100692.53;;;26.96;60.40
75497;BME280;64074;47.540;19.072;2023-08-24T07:41:57;100693.38;;;27.00;60.33
75497;BME280;64074;47.540;19.072;2023-08-24T07:45:00;100692.97;;;27.09;60.30
75497;BME280;64074;47.540;19.072;2023-08-24T07:48:04;100693.78;;;27.06;59.39
75497;BME280;64074;47.540;19.072;2023-08-24T07:51:07;100692.16;;;27.37;59.03
75497;BME280;64074;47.540;19.072;2023-08-24T07:54:10;100697.31;;;27.38;57.46
75497;BME280;64074;47.540;19.072;2023-08-24T07:57:13;100703.25;;;27.44;57.60
75497;BME280;64074;47.540;19.072;2023-08-24T08:00:17;100701.28;;;27.51;56.38
75497;BME280;64074;47.540;19.072;2023-08-24T08:03:22;100703.63;;;27.71;55.89
75497;BME280;64074;47.540;19.072;2023-08-24T08:06:26;100700.06;;;27.63;53.44
75497;BME280;64074;47.540;19.072;2023-08-24T08:09:30;100698.41;;;27.83;54.39
75497;BME280;64074;47.540;19.072;2023-08-24T08:12:35;100696.78;;;27.89;52.31
75497;BME280;64074;47.540;19.072;2023-08-24T08:15:39;100707.63;;;27.66;51.41
75497;BME280;64074;47.540;19.072;2023-08-24T08:18:43;100702.41;;;27.72;49.19
75497;BME280;64074;47.540;19.072;2023-08-24T08:21:46;100705.88;;;28.01;50.21
75497;BME280;64074;47.540;19.072;2023-08-24T08:24:50;100706.59;;;28.19;49.51
75497;BME280;64074;47.540;19.072;2023-08-24T08:27:53;100711.72;;;28.35;49.02
75497;BME280;64074;47.540;19.072;2023-08-24T08:30:56;100711.06;;;28.06;48.93
75497;BME280;64074;47.540;19.072;2023-08-24T08:33:59;100713.22;;;28.46;48.34
75497;BME280;64074;47.540;19.072;2023-08-24T08:37:02;100710.03;;;28.52;49.47
75497;BME280;64074;47.540;19.072;2023-08-24T08:40:09;100711.66;;;28.45;49.15
75497;BME280;64074;47.540;19.072;2023-08-24T08:43:13;100709.16;;;28.62;49.02
75497;BME280;64074;47.540;19.072;2023-08-24T08:46:16;100708.72;;;28.67;50.07
75497;BME280;64074;47.540;19.072;2023-08-24T08:49:21;100699.53;;;28.70;49.04
75497;BME280;64074;47.540;19.072;2023-08-24T08:52:24;100697.03;;;28.86;49.37
75497;BME280;64074;47.540;19.072;2023-08-24T08:55:28;100704.59;;;28.89;49.57
75497;BME280;64074;47.540;19.072;2023-08-24T08:58:33;100687.47;;;28.87;48.91
75497;BME280;64074;47.540;19.072;2023-08-24T09:01:38;100690.47;;;29.07;46.94
75497;BME280;64074;47.540;19.072;2023-08-24T09:04:44;100685.31;;;29.05;46.29
75497;BME280;64074;47.540;19.072;2023-08-24T09:07:48;100676.47;;;29.10;46.84
75497;BME280;64074;47.540;19.072;2023-08-24T09:10:52;100678.78;;;29.19;45.87
75497;BME280;64074;47.540;19.072;2023-08-24T09:13:55;100677.28;;;29.11;45.49
75497;BME280;64074;47.540;19.072;2023-08-24T09:16:58;100683.03;;;29.34;45.76
75497;BME280;64074;47.540;19.072;2023-08-24T09:20:06;100681.78;;;29.39;46.12
75497;BME280;64074;47.540;19.072;2023-08-24T09:23:19;100680.41;;;29.58;44.75
75497;BME280;64074;47.540;19.072;2023-08-24T09:26:30;100682.09;;;29.48;45.25
75497;BME280;64074;47.540;19.072;2023-08-24T09:29:36;100671.59;;;29.59;44.53
75497;BME280;64074;47.540;19.072;2023-08-24T09:32:41;100663.81;;;29.78;44.50
75497;BME280;64074;47.540;19.072;2023-08-24T09:35:45;100665.03;;;29.77;43.85
75497;BME280;64074;47.540;19.072;2023-08-24T09:38:55;100664.50;;;29.85;44.38
75497;BME280;64074;47.540;19.072;2023-08-24T09:42:00;100658.28;;;29.70;43.46
75497;BME280;64074;47.540;19.072;2023-08-24T09:45:11;100661.69;;;29.85;42.39
75497;BME280;64074;47.540;19.072;2023-08-24T09:48:15;100656.22;;;30.09;42.61
75497;BME280;64074;47.540;19.072;2023-08-24T09:51:20;100663.09;;;30.31;42.35
75497;BME280;64074;47.540;19.072;2023-08-24T09:54:28;100657.63;;;30.47;41.23
75497;BME280;64074;47.540;19.072;2023-08-24T09:57:37;100658.13;;;30.42;41.62
75497;BME280;64074;47.540;19.072;2023-08-24T10:00:43;100658.44;;;30.48;40.55
75497;BME280;64074;47.540;19.072;2023-08-24T10:03:50;100657.53;;;30.54;40.90
75497;BME280;64074;47.540;19.072;2023-08-24T10:07:13;100655.59;;;30.51;40.28
75497;BME280;64074;47.540;19.072;2023-08-24T10:10:19;100657.31;;;30.42;40.81
75497;BME280;64074;47.540;19.072;2023-08-24T10:13:30;100652.78;;;30.78;41.29
75497;BME280;64074;47.540;19.072;2023-08-24T10:16:35;100650.28;;;30.60;41.00
75497;BME280;64074;47.540;19.072;2023-08-24T10:19:39;100651.66;;;30.72;39.75
75497;BME280;64074;47.540;19.072;2023-08-24T10:22:43;100646.31;;;30.81;38.71
75497;BME280;64074;47.540;19.072;2023-08-24T10:25:47;100648.19;;;30.88;39.53
75497;BME280;64074;47.540;19.072;2023-08-24T10:28:54;100643.47;;;30.58;37.99
75497;BME280;64074;47.540;19.072;2023-08-24T10:32:00;100628.81;;;30.77;37.13
75497;BME280;64074;47.540;19.072;2023-08-24T10:35:05;100623.22;;;30.97;36.60
75497;BME280;64074;47.540;19.072;2023-08-24T10:38:26;100621.75;;;31.12;35.52
75497;BME280;64074;47.540;19.072;2023-08-24T10:41:30;100616.91;;;31.16;35.22
75497;BME280;64074;47.540;19.072;2023-08-24T10:44:48;100609.75;;;31.12;34.48
75497;BME280;64074;47.540;19.072;2023-08-24T10:47:54;100609.44;;;31.30;34.87
75497;BME280;64074;47.540;19.072;2023-08-24T10:54:30;100616.75;;;31.63;34.28
75497;BME280;64074;47.540;19.072;2023-08-24T10:57:38;100606.06;;;31.78;34.13
75497;BME280;64074;47.540;19.072;2023-08-24T11:00:48;100598.34;;;31.82;34.42
75497;BME280;64074;47.540;19.072;2023-08-24T11:03:56;100603.50;;;32.20;34.08
75497;BME280;64074;47.540;19.072;2023-08-24T11:07:01;100598.41;;;31.98;33.57
75497;BME280;64074;47.540;19.072;2023-08-24T11:10:11;100602.84;;;31.96;33.13
75497;BME280;64074;47.540;19.072;2023-08-24T11:13:17;100596.44;;;31.95;32.90
75497;BME280;64074;47.540;19.072;2023-08-24T11:16:46;100602.09;;;32.11;32.41
75497;BME280;64074;47.540;19.072;2023-08-24T11:19:53;100599.41;;;32.24;32.12
75497;BME280;64074;47.540;19.072;2023-08-24T11:22:56;100593.34;;;32.58;32.10
75497;BME280;64074;47.540;19.072;2023-08-24T11:26:01;100584.16;;;32.58;32.49
75497;BME280;64074;47.540;19.072;2023-08-24T11:29:05;100596.22;;;32.71;31.88
75497;BME280;64074;47.540;19.072;2023-08-24T11:32:08;100597.03;;;32.88;32.17
75497;BME280;64074;47.540;19.072;2023-08-24T11:35:12;100589.47;;;32.68;31.23
75497;BME280;64074;47.540;19.072;2023-08-24T11:38:15;100587.53;;;32.65;31.69
75497;BME280;64074;47.540;19.072;2023-08-24T11:41:19;100580.16;;;32.71;31.84
75497;BME280;64074;47.540;19.072;2023-08-24T11:44:24;100586.22;;;32.21;31.94
75497;BME280;64074;47.540;19.072;2023-08-24T11:47:31;100573.41;;;33.14;31.98
75497;BME280;64074;47.540;19.072;2023-08-24T11:50:34;100568.28;;;33.25;30.98
75497;BME280;64074;47.540;19.072;2023-08-24T11:53:45;100581.28;;;33.36;31.03
75497;BME280;64074;47.540;19.072;2023-08-24T11:56:49;100576.84;;;33.22;31.29
75497;BME280;64074;47.540;19.072;2023-08-24T11:59:52;100570.13;;;33.03;31.25
75497;BME280;64074;47.540;19.072;2023-08-24T12:02:57;100575.34;;;33.17;31.66
75497;BME280;64074;47.540;19.072;2023-08-24T12:06:02;100566.53;;;33.02;31.59
75497;BME280;64074;47.540;19.072;2023-08-24T12:09:07;100565.13;;;33.65;29.86
75497;BME280;64074;47.540;19.072;2023-08-24T12:12:14;100559.88;;;33.92;28.99
75497;BME280;64074;47.540;19.072;2023-08-24T12:15:18;100569.31;;;34.49;28.75
75497;BME280;64074;47.540;19.072;2023-08-24T12:18:24;100562.28;;;35.45;27.79
75497;BME280;64074;47.540;19.072;2023-08-24T12:21:28;100560.78;;;35.62;27.61
75497;BME280;64074;47.540;19.072;2023-08-24T12:24:32;100549.03;;;36.35;26.19
75497;BME280;64074;47.540;19.072;2023-08-24T12:27:35;100545.44;;;37.35;25.46
75497;BME280;64074;47.540;19.072;2023-08-24T12:30:49;100541.50;;;37.33;24.44
75497;BME280;64074;47.540;19.072;2023-08-24T12:34:06;100544.50;;;38.13;22.83
75497;BME280;64074;47.540;19.072;2023-08-24T12:37:12;100546.59;;;37.62;23.75
75497;BME280;64074;47.540;19.072;2023-08-24T12:40:15;100533.97;;;38.62;23.56
75497;BME280;64074;47.540;19.072;2023-08-24T12:43:19;100530.47;;;39.50;22.84
75497;BME280;64074;47.540;19.072;2023-08-24T12:46:23;100524.75;;;39.79;20.63
75497;BME280;64074;47.540;19.072;2023-08-24T12:49:27;100515.97;;;39.77;20.88
75497;BME280;64074;47.540;19.072;2023-08-24T12:52:30;100526.84;;;39.64;20.93
75497;BME280;64074;47.540;19.072;2023-08-24T12:55:36;100521.19;;;38.66;22.21
75497;BME280;64074;47.540;19.072;2023-08-24T12:58:40;100516.59;;;39.07;21.32
75497;BME280;64074;47.540;19.072;2023-08-24T13:01:43;100510.91;;;39.66;21.10
75497;BME280;64074;47.540;19.072;2023-08-24T13:04:46;100510.91;;;39.87;20.50
75497;BME280;64074;47.540;19.072;2023-08-24T13:07:51;100508.72;;;40.32;20.96
75497;BME280;64074;47.540;19.072;2023-08-24T13:10:55;100506.22;;;40.59;19.38
75497;BME280;64074;47.540;19.072;2023-08-24T13:13:58;100499.56;;;39.52;21.21
75497;BME280;64074;47.540;19.072;2023-08-24T13:17:02;100484.63;;;41.19;19.87
75497;BME280;64074;47.540;19.072;2023-08-24T13:20:05;100490.25;;;41.71;19.44
75497;BME280;64074;47.540;19.072;2023-08-24T13:23:09;100487.44;;;41.45;19.17
75497;BME280;64074;47.540;19.072;2023-08-24T13:26:19;100485.88;;;41.76;18.68
75497;BME280;64074;47.540;19.072;2023-08-24T13:29:23;100478.81;;;41.08;19.66
75497;BME280;64074;47.540;19.072;2023-08-24T13:32:29;100475.53;;;41.41;20.11
75497;BME280;64074;47.540;19.072;2023-08-24T13:35:35;100469.81;;;40.84;20.04
75497;BME280;64074;47.540;19.072;2023-08-24T13:38:38;100465.78;;;39.39;20.56
75497;BME280;64074;47.540;19.072;2023-08-24T13:41:42;100466.59;;;40.10;20.56
75497;BME280;64074;47.540;19.072;2023-08-24T13:44:46;100462.44;;;39.90;20.96
75497;BME280;64074;47.540;19.072;2023-08-24T13:47:50;100462.25;;;41.64;19.65
75497;BME280;64074;47.540;19.072;2023-08-24T13:50:53;100465.00;;;41.59;19.12
75497;BME280;64074;47.540;19.072;2023-08-24T13:53:56;100461.34;;;40.23;19.35
75497;BME280;64074;47.540;19.072;2023-08-24T13:57:00;100461.94;;;40.99;18.72
75497;BME280;64074;47.540;19.072;2023-08-24T14:00:05;100459.16;;;39.13;21.11
75497;BME280;64074;47.540;19.072;2023-08-24T14:03:15;100451.50;;;41.16;19.15
75497;BME280;64074;47.540;19.072;2023-08-24T14:06:18;100457.06;;;41.05;19.07
75497;BME280;64074;47.540;19.072;2023-08-24T14:09:21;100451.50;;;41.16;18.53
75497;BME280;64074;47.540;19.072;2023-08-24T14:12:24;100451.63;;;41.33;18.98
75497;BME280;64074;47.540;19.072;2023-08-24T14:15:27;100435.38;;;40.36;18.98
75497;BME280;64074;47.540;19.072;2023-08-24T14:18:31;100436.56;;;40.96;19.02
75497;BME280;64074;47.540;19.072;2023-08-24T14:21:35;100442.56;;;39.70;20.14
75497;BME280;64074;47.540;19.072;2023-08-24T14:24:47;100434.28;;;41.31;18.76
75497;BME280;64074;47.540;19.072;2023-08-24T14:27:51;100430.41;;;42.14;18.97
75497;BME280;64074;47.540;19.072;2023-08-24T14:31:07;100427.81;;;42.16;18.38
75497;BME280;64074;47.540;19.072;2023-08-24T14:34:10;100440.97;;;43.35;17.45
75497;BME280;64074;47.540;19.072;2023-08-24T14:37:13;100434.22;;;43.21;17.54
75497;BME280;64074;47.540;19.072;2023-08-24T14:40:16;100433.19;;;43.18;17.10
75497;BME280;64074;47.540;19.072;2023-08-24T14:43:23;100429.81;;;42.97;17.35
75497;BME280;64074;47.540;19.072;2023-08-24T14:46:27;100422.00;;;41.51;18.54
75497;BME280;64074;47.540;19.072;2023-08-24T14:49:31;100423.22;;;40.55;19.46
75497;BME280;64074;47.540;19.072;2023-08-24T14:52:34;100418.97;;;39.84;20.79
75497;BME280;64074;47.540;19.072;2023-08-24T14:55:38;100420.19;;;38.54;21.67
75497;BME280;64074;47.540;19.072;2023-08-24T14:58:41;100418.34;;;37.55;22.33
75497;BME280;64074;47.540;19.072;2023-08-24T15:01:44;100415.81;;;37.15;23.59
75497;BME280;64074;47.540;19.072;2023-08-24T15:04:48;100424.09;;;36.67;24.18
75497;BME280;64074;47.540;19.072;2023-08-24T15:07:53;100421.94;;;35.67;25.03
75497;BME280;64074;47.540;19.072;2023-08-24T15:10:59;100423.88;;;35.08;25.42
75497;BME280;64074;47.540;19.072;2023-08-24T15:14:03;100430.31;;;35.40;25.90
75497;BME280;64074;47.540;19.072;2023-08-24T15:17:06;100432.88;;;35.56;25.42
75497;BME280;64074;47.540;19.072;2023-08-24T15:20:10;100437.53;;;35.41;25.69
75497;BME280;64074;47.540;19.072;2023-08-24T15:23:25;100424.31;;;35.29;24.76
75497;BME280;64074;47.540;19.072;2023-08-24T15:26:28;100418.91;;;35.12;25.45
75497;BME280;64074;47.540;19.072;2023-08-24T15:29:31;100411.28;;;35.22;26.52
75497;BME280;64074;47.540;19.072;2023-08-24T15:32:35;100420.16;;;34.68;26.52
75497;BME280;64074;47.540;19.072;2023-08-24T15:35:41;100417.56;;;34.73;25.85
75497;BME280;64074;47.540;19.072;2023-08-24T15:38:46;100421.50;;;34.76;27.29
75497;BME280;64074;47.540;19.072;2023-08-24T15:41:49;100421.28;;;34.14;27.63
75497;BME280;64074;47.540;19.072;2023-08-24T15:44:52;100414.25;;;34.31;27.96
75497;BME280;64074;47.540;19.072;2023-08-24T15:47:57;100396.00;;;34.36;27.33
75497;BME280;64074;47.540;19.072;2023-08-24T15:51:01;100401.41;;;34.30;28.49
75497;BME280;64074;47.540;19.072;2023-08-24T15:54:04;100402.16;;;34.09;28.24
75497;BME280;64074;47.540;19.072;2023-08-24T15:57:07;100400.53;;;34.20;28.50
75497;BME280;64074;47.540;19.072;2023-08-24T16:00:12;100396.34;;;33.90;28.21